createdAt,value
2018-05-18T00:00:00.231Z,97.90
2018-05-18T00:02:03.772Z,97.50
2018-05-18T00:04:07.104Z,98.00
2018-05-18T00:06:10.458Z,97.50
2018-05-18T00:08:13.833Z,97.50
2018-05-18T00:10:18.159Z,97.60
2018-05-18T00:12:21.527Z,97.50
2018-05-18T00:14:24.952Z,97.80
2018-05-18T00:16:28.284Z,98.10
2018-05-18T00:18:31.593Z,98.00
2018-05-18T00:20:36.004Z,97.90
2018-05-18T00:22:39.363Z,97.90
2018-05-18T00:24:42.718Z,97.90
2018-05-18T00:26:46.152Z,98.10
2018-05-18T00:28:49.674Z,98.10
2018-05-18T00:30:53.084Z,98.50
2018-05-18T00:32:56.515Z,98.60
2018-05-18T00:34:59.889Z,98.50
2018-05-18T00:37:03.220Z,98.60
2018-05-18T00:39:06.559Z,98.40
2018-05-18T00:41:09.922Z,98.50
2018-05-18T00:43:13.325Z,98.30
2018-05-18T00:45:18.013Z,98.50
2018-05-18T00:47:21.475Z,98.50
2018-05-18T00:49:24.819Z,98.20
2018-05-18T00:51:28.233Z,97.90
2018-05-18T00:53:31.598Z,98.00
2018-05-18T00:55:44.378Z,98.10
2018-05-18T00:57:47.826Z,98.10
2018-05-18T00:59:51.198Z,98.30
2018-05-18T01:01:54.647Z,98.30
2018-05-18T01:03:57.978Z,98.00
2018-05-18T01:06:01.338Z,98.00
2018-05-18T01:08:04.802Z,97.70
2018-05-18T01:10:08.198Z,97.60
2018-05-18T01:12:11.639Z,97.40
2018-05-18T01:14:15.206Z,97.70
2018-05-18T01:16:18.802Z,97.60
2018-05-18T01:18:22.214Z,97.20
2018-05-18T01:20:25.658Z,97.10
2018-05-18T01:22:29.070Z,97.30
2018-05-18T01:24:32.455Z,97.70
2018-05-18T01:26:35.792Z,97.50
2018-05-18T01:28:39.210Z,97.90
2018-05-18T01:30:42.596Z,97.70
2018-05-18T01:32:45.993Z,97.70
2018-05-18T01:34:49.404Z,97.60
2018-05-18T01:36:52.949Z,97.60
2018-05-18T01:38:56.322Z,97.40
2018-05-18T01:40:59.713Z,97.40
2018-05-18T01:43:03.120Z,97.60
2018-05-18T01:45:06.449Z,97.10
2018-05-18T01:47:09.827Z,97.20
2018-05-18T01:49:13.231Z,97.40
2018-05-18T01:51:16.578Z,97.20
2018-05-18T01:53:19.952Z,97.10
2018-05-18T01:55:23.337Z,97.10
2018-05-18T01:57:26.743Z,96.90
2018-05-18T01:59:30.159Z,96.90
2018-05-18T02:01:33.529Z,96.60
2018-05-18T02:03:36.899Z,96.80
2018-05-18T02:05:40.279Z,96.90
2018-05-18T02:07:43.615Z,97.00
2018-05-18T02:09:46.965Z,96.70
2018-05-18T02:11:50.323Z,96.60
2018-05-18T02:13:53.665Z,96.40
2018-05-18T02:15:57.009Z,96.40
2018-05-18T02:18:00.451Z,96.40
2018-05-18T02:20:03.864Z,95.70
2018-05-18T02:22:07.180Z,95.40
2018-05-18T02:24:10.584Z,95.40
2018-05-18T02:26:14.030Z,95.50
2018-05-18T02:28:17.526Z,95.90
2018-05-18T02:30:20.960Z,95.70
2018-05-18T02:32:24.383Z,96.20
2018-05-18T02:34:27.780Z,95.80
2018-05-18T02:36:31.178Z,95.70
2018-05-18T02:38:34.546Z,95.40
2018-05-18T02:40:38.108Z,95.70
2018-05-18T02:42:41.496Z,95.70
2018-05-18T02:44:45.614Z,95.90
2018-05-18T02:46:49.046Z,95.90
2018-05-18T02:48:52.398Z,96.00
2018-05-18T02:50:55.842Z,96.80
2018-05-18T02:52:59.239Z,96.90
2018-05-18T02:55:02.647Z,97.00
2018-05-18T02:57:05.992Z,96.60
2018-05-18T02:59:09.371Z,96.10
2018-05-18T03:01:12.744Z,95.30
2018-05-18T03:03:16.844Z,95.60
2018-05-18T03:05:20.988Z,95.50
2018-05-18T03:07:24.444Z,95.40
2018-05-18T03:09:28.541Z,95.90
2018-05-18T03:11:31.876Z,95.90
2018-05-18T03:13:35.250Z,95.90
2018-05-18T03:15:38.607Z,95.90
2018-05-18T03:17:41.936Z,95.80
2018-05-18T03:19:45.307Z,95.70
2018-05-18T03:21:49.493Z,95.50
2018-05-18T03:23:52.835Z,95.50
2018-05-18T03:25:56.428Z,95.50
2018-05-18T03:27:59.750Z,95.40
2018-05-18T03:30:03.079Z,95.30
2018-05-18T03:32:06.497Z,95.50
2018-05-18T03:34:09.934Z,95.60
2018-05-18T03:36:13.250Z,95.60
2018-05-18T03:38:16.772Z,95.00
2018-05-18T03:40:20.871Z,94.50
2018-05-18T03:42:24.200Z,94.50
2018-05-18T03:44:27.578Z,95.10
2018-05-18T03:46:30.923Z,94.90
2018-05-18T03:48:34.264Z,95.30
2018-05-18T03:50:38.370Z,94.30
2018-05-18T03:52:41.700Z,94.30
2018-05-18T03:54:45.003Z,94.50
2018-05-18T03:56:48.345Z,94.20
2018-05-18T03:58:51.755Z,94.40
2018-05-18T04:00:55.096Z,94.40
2018-05-18T04:03:16.049Z,94.10
2018-05-18T04:05:36.931Z,94.40
2018-05-18T04:07:58.506Z,94.00
2018-05-18T04:10:01.856Z,94.00
2018-05-18T04:12:05.962Z,93.80
2018-05-18T04:14:09.371Z,93.80
2018-05-18T04:16:12.735Z,94.00
2018-05-18T04:18:16.152Z,94.00
2018-05-18T04:20:19.894Z,93.80
2018-05-18T04:22:23.401Z,93.60
2018-05-18T04:24:27.940Z,93.70
2018-05-18T04:26:31.347Z,93.70
2018-05-18T04:28:36.023Z,93.30
2018-05-18T04:30:39.587Z,93.30
2018-05-18T04:32:42.925Z,93.70
2018-05-18T04:34:46.315Z,93.60
2018-05-18T04:36:49.631Z,93.70
2018-05-18T04:38:52.969Z,93.80
2018-05-18T04:40:56.326Z,94.60
2018-05-18T04:42:59.761Z,94.50
2018-05-18T04:45:03.246Z,95.00
2018-05-18T04:47:07.011Z,94.50
2018-05-18T04:49:10.390Z,94.40
2018-05-18T04:51:13.916Z,94.70
2018-05-18T04:53:17.504Z,94.50
2018-05-18T04:55:21.733Z,93.90
2018-05-18T04:57:25.240Z,94.30
2018-05-18T04:59:28.622Z,93.90
2018-05-18T05:01:32.571Z,93.90
2018-05-18T05:03:35.952Z,93.40
2018-05-18T05:05:39.463Z,93.20
2018-05-18T05:07:45.211Z,93.80
2018-05-18T05:09:48.913Z,93.60
2018-05-18T05:11:52.268Z,93.40
2018-05-18T05:13:55.923Z,93.70
2018-05-18T05:15:59.358Z,94.10
2018-05-18T05:18:02.668Z,93.10
2018-05-18T05:20:06.118Z,94.10
2018-05-18T05:22:10.268Z,94.00
2018-05-18T05:24:13.624Z,94.00
2018-05-18T05:26:17.872Z,94.00
2018-05-18T05:28:21.215Z,94.20
2018-05-18T05:30:24.918Z,94.00
2018-05-18T05:32:28.366Z,94.40
2018-05-18T05:34:33.068Z,93.00
2018-05-18T05:36:36.521Z,92.60
2018-05-18T05:38:55.587Z,92.40
2018-05-18T05:40:59.236Z,93.20
2018-05-18T05:43:02.609Z,93.30
2018-05-18T05:45:05.919Z,92.90
2018-05-18T05:47:09.598Z,93.00
2018-05-18T05:49:13.037Z,93.40
2018-05-18T05:51:16.478Z,93.60
2018-05-18T05:53:20.562Z,93.10
2018-05-18T05:55:23.949Z,93.10
2018-05-18T05:57:27.326Z,92.90
2018-05-18T05:59:30.758Z,93.00
2018-05-18T06:01:34.303Z,92.20
2018-05-18T06:03:37.731Z,92.50
2018-05-18T06:05:41.242Z,92.00
2018-05-18T06:07:45.423Z,92.10
2018-05-18T06:09:48.862Z,92.10
2018-05-18T06:11:52.629Z,91.90
2018-05-18T06:13:56.259Z,91.50
2018-05-18T06:15:59.887Z,91.40
2018-05-18T06:18:03.736Z,91.60
2018-05-18T06:20:07.374Z,91.40
2018-05-18T06:22:11.071Z,91.20
2018-05-18T06:24:14.536Z,91.50
2018-05-18T06:26:18.212Z,91.60
2018-05-18T06:28:21.629Z,91.70
2018-05-18T06:30:25.075Z,91.80
2018-05-18T06:32:28.495Z,91.70
2018-05-18T06:34:31.872Z,91.50
2018-05-18T06:36:35.278Z,90.80
2018-05-18T06:38:38.691Z,90.90
2018-05-18T06:40:42.024Z,91.10
2018-05-18T06:42:45.443Z,90.80
2018-05-18T06:44:48.937Z,91.30
2018-05-18T06:46:52.815Z,91.50
2018-05-18T06:48:57.147Z,91.30
2018-05-18T06:51:00.635Z,91.30
2018-05-18T06:53:04.058Z,91.00
2018-05-18T06:55:07.501Z,91.30
2018-05-18T06:57:10.891Z,91.50
2018-05-18T06:59:14.460Z,91.90
2018-05-18T07:01:17.982Z,91.70
2018-05-18T07:03:22.249Z,91.10
2018-05-18T07:05:25.684Z,91.00
2018-05-18T07:07:29.926Z,91.60
2018-05-18T07:09:33.392Z,91.10
2018-05-18T07:11:36.971Z,91.00
2018-05-18T07:13:40.390Z,91.30
2018-05-18T07:15:43.788Z,91.00
2018-05-18T07:17:47.896Z,90.50
2018-05-18T07:19:51.526Z,90.40
2018-05-18T07:21:55.113Z,90.30
2018-05-18T07:23:58.559Z,90.10
2018-05-18T07:26:02.298Z,88.40
2018-05-18T07:28:06.488Z,87.30
2018-05-18T07:30:10.633Z,87.30
2018-05-18T07:32:14.336Z,87.20
2018-05-18T07:34:18.253Z,87.10
2018-05-18T07:36:21.626Z,87.60
2018-05-18T07:38:25.191Z,88.20
2018-05-18T07:40:28.757Z,89.60
2018-05-18T07:42:33.395Z,89.30
2018-05-18T07:44:37.081Z,89.40
2018-05-18T07:46:40.605Z,90.20
2018-05-18T07:48:44.204Z,89.20
2018-05-18T07:50:48.081Z,88.60
2018-05-18T07:52:52.173Z,88.60
2018-05-18T07:54:55.633Z,89.20
2018-05-18T07:56:59.894Z,90.60
2018-05-18T07:59:03.562Z,90.60
2018-05-18T08:01:07.160Z,90.40
2018-05-18T08:03:10.684Z,90.40
2018-05-18T08:05:14.160Z,89.90
2018-05-18T08:07:17.737Z,88.90
2018-05-18T08:09:21.131Z,88.70
2018-05-18T08:11:24.845Z,87.60
2018-05-18T08:13:28.525Z,88.00
2018-05-18T08:15:31.963Z,87.30
2018-05-18T08:17:35.839Z,87.60
2018-05-18T08:19:39.691Z,87.50
2018-05-18T08:21:43.149Z,85.30
2018-05-18T08:23:47.881Z,85.60
2018-05-18T08:25:52.273Z,85.20
2018-05-18T08:27:55.749Z,85.20
2018-05-18T08:30:00.318Z,84.80
2018-05-18T08:32:04.117Z,84.80
2018-05-18T08:34:07.689Z,86.00
2018-05-18T08:36:11.168Z,84.20
2018-05-18T08:38:14.829Z,82.40
2018-05-18T08:40:18.497Z,81.20
2018-05-18T08:42:21.899Z,84.00
2018-05-18T08:44:26.113Z,87.10
2018-05-18T08:46:29.797Z,87.10
2018-05-18T08:48:33.211Z,86.10
2018-05-18T08:50:36.626Z,81.80
2018-05-18T08:52:40.149Z,81.40
2018-05-18T08:54:43.820Z,82.30
2018-05-18T08:56:47.347Z,83.10
2018-05-18T08:58:50.736Z,82.60
2018-05-18T09:00:54.130Z,80.10
2018-05-18T09:02:57.509Z,80.00
2018-05-18T09:05:02.903Z,80.80
2018-05-18T09:07:06.667Z,81.00
2018-05-18T09:09:11.684Z,83.10
2018-05-18T09:11:17.569Z,83.30
2018-05-18T09:13:21.812Z,83.00
2018-05-18T09:15:26.226Z,82.40
2018-05-18T09:17:29.972Z,81.70
2018-05-18T09:19:33.361Z,81.60
2018-05-18T09:21:36.718Z,82.70
2018-05-18T09:23:41.155Z,81.80
2018-05-18T09:25:46.065Z,81.60
2018-05-18T09:27:49.477Z,81.30
2018-05-18T09:29:52.818Z,81.40
2018-05-18T09:31:57.081Z,80.40
2018-05-18T09:34:00.675Z,80.30
2018-05-18T09:36:03.944Z,80.40
2018-05-18T09:38:08.072Z,81.10
2018-05-18T09:40:11.376Z,81.10
2018-05-18T09:42:14.719Z,80.10
2018-05-18T09:44:18.911Z,81.30
2018-05-18T09:46:22.280Z,81.30
2018-05-18T09:48:26.345Z,80.60
2018-05-18T09:50:29.695Z,80.40
2018-05-18T09:52:33.015Z,80.60
2018-05-18T09:54:38.270Z,80.50
2018-05-18T09:56:41.994Z,80.40
2018-05-18T09:58:45.803Z,80.60
2018-05-18T10:00:50.066Z,80.10
2018-05-18T10:02:53.345Z,79.80
2018-05-18T10:04:56.724Z,78.80
2018-05-18T10:07:00.695Z,78.60
2018-05-18T10:09:04.173Z,78.00
2018-05-18T10:11:07.565Z,77.20
2018-05-18T10:13:10.873Z,76.80
2018-05-18T10:15:14.239Z,75.90
2018-05-18T10:17:17.566Z,76.10
2018-05-18T10:19:20.893Z,76.40
2018-05-18T10:21:24.237Z,76.90
2018-05-18T10:23:27.990Z,76.30
2018-05-18T10:25:31.360Z,77.50
2018-05-18T10:27:34.762Z,77.90
2018-05-18T10:29:38.117Z,76.90
2018-05-18T10:31:41.438Z,75.60
2018-05-18T10:33:44.813Z,75.60
2018-05-18T10:35:48.234Z,74.90
2018-05-18T10:37:51.563Z,74.80
2018-05-18T10:39:54.962Z,76.00
2018-05-18T10:41:58.345Z,76.10
2018-05-18T10:44:01.718Z,76.20
2018-05-18T10:46:05.064Z,76.40
2018-05-18T10:48:08.555Z,76.70
2018-05-18T10:50:12.950Z,74.80
2018-05-18T10:52:17.496Z,76.30
2018-05-18T10:54:20.994Z,76.00
2018-05-18T10:56:24.612Z,75.80
2018-05-18T10:58:28.737Z,77.30
2018-05-18T11:00:32.308Z,76.80
2018-05-18T11:02:35.660Z,77.10
2018-05-18T11:04:39.820Z,75.70
2018-05-18T11:06:43.170Z,75.70
2018-05-18T11:08:46.506Z,74.10
2018-05-18T11:12:56.003Z,73.80
2018-05-18T11:15:00.285Z,74.70
2018-05-18T11:17:04.508Z,74.50
2018-05-18T11:19:10.515Z,74.30
2018-05-18T11:23:29.230Z,75.20
2018-05-18T11:25:32.802Z,76.00
2018-05-18T11:27:36.152Z,73.00
2018-05-18T11:29:39.504Z,72.20
2018-05-18T11:31:45.972Z,73.80
2018-05-18T11:33:53.051Z,74.10
2018-05-18T11:35:56.672Z,73.60
2018-05-18T11:38:03.875Z,73.50
2018-05-18T11:40:08.422Z,73.30
2018-05-18T11:42:11.997Z,72.90
2018-05-18T11:44:17.631Z,72.70
2018-05-18T11:46:25.834Z,73.00
2018-05-18T11:48:32.814Z,71.40
2018-05-18T11:50:36.327Z,71.70
2018-05-18T11:52:39.744Z,71.60
2018-05-18T11:54:43.949Z,71.10
2018-05-18T11:56:47.460Z,71.20
2018-05-18T11:58:50.890Z,70.20
2018-05-18T12:00:54.236Z,69.70
2018-05-18T12:02:57.664Z,68.60
2018-05-18T12:05:00.989Z,70.00
2018-05-18T12:07:04.468Z,71.80
2018-05-18T12:09:08.692Z,72.20
2018-05-18T12:11:12.134Z,72.10
2018-05-18T12:13:15.556Z,71.30
2018-05-18T12:15:18.913Z,70.40
2018-05-18T12:17:22.551Z,70.60
2018-05-18T12:19:25.915Z,70.50
2018-05-18T12:21:29.369Z,70.80
2018-05-18T12:23:33.488Z,69.90
2018-05-18T12:25:37.409Z,69.90
2018-05-18T12:27:41.042Z,70.00
2018-05-18T12:29:44.429Z,68.80
2018-05-18T12:31:47.768Z,68.90
2018-05-18T12:33:51.142Z,67.20
2018-05-18T12:35:56.081Z,66.30
2018-05-18T12:37:59.435Z,66.80
2018-05-18T12:40:02.804Z,66.70
2018-05-18T12:42:06.924Z,66.00
2018-05-18T12:44:11.064Z,66.00
2018-05-18T12:46:15.189Z,66.20
2018-05-18T12:48:18.510Z,66.20
2018-05-18T12:50:22.042Z,67.50
2018-05-18T12:52:25.376Z,67.60
2018-05-18T12:54:28.876Z,66.50
2018-05-18T12:56:32.385Z,65.40
2018-05-18T12:58:35.910Z,66.90
2018-05-18T13:00:40.297Z,65.10
2018-05-18T13:02:43.678Z,65.00
2018-05-18T13:04:47.925Z,63.10
2018-05-18T13:06:51.522Z,63.10
2018-05-18T13:08:55.654Z,61.40
2018-05-18T13:10:59.004Z,61.50
2018-05-18T13:13:03.293Z,60.60
2018-05-18T13:15:06.863Z,60.50
2018-05-18T13:19:20.254Z,58.90
2018-05-18T13:21:23.780Z,59.90
2018-05-18T13:23:27.432Z,60.80
2018-05-18T13:25:31.811Z,62.20
2018-05-18T13:27:37.356Z,62.10
2018-05-18T13:29:42.232Z,62.20
2018-05-18T13:31:45.607Z,62.10
2018-05-18T13:33:49.299Z,61.10
2018-05-18T13:35:52.979Z,61.50
2018-05-18T13:37:56.624Z,61.10
2018-05-18T13:40:00.109Z,61.10
2018-05-18T13:42:03.778Z,61.60
2018-05-18T13:44:07.586Z,61.60
2018-05-18T13:46:12.125Z,62.00
2018-05-18T13:48:16.000Z,62.60
2018-05-18T13:50:20.396Z,62.40
2018-05-18T13:52:23.769Z,62.40
2018-05-18T13:54:27.161Z,63.90
2018-05-18T13:56:30.649Z,65.30
2018-05-18T13:58:34.309Z,64.40
2018-05-18T14:00:37.860Z,64.60
2018-05-18T14:02:41.381Z,62.40
2018-05-18T14:04:44.830Z,59.60
2018-05-18T14:06:50.261Z,61.20
2018-05-18T14:08:54.357Z,61.30
2018-05-18T14:10:59.944Z,61.80
2018-05-18T14:13:03.366Z,61.10
2018-05-18T14:15:08.679Z,60.20
2018-05-18T14:17:14.153Z,60.50
2018-05-18T14:19:18.078Z,58.90
2018-05-18T14:21:21.471Z,58.90
2018-05-18T14:23:25.187Z,59.10
2018-05-18T14:25:28.706Z,60.00
2018-05-18T14:27:32.985Z,59.30
2018-05-18T14:29:36.349Z,59.10
2018-05-18T14:31:42.995Z,58.80
2018-05-18T14:33:46.394Z,58.70
2018-05-18T14:35:50.694Z,59.80
2018-05-18T14:37:54.214Z,59.90
2018-05-18T14:39:57.566Z,58.50
2018-05-18T14:42:01.793Z,58.10
2018-05-18T14:44:05.469Z,58.00
2018-05-18T14:46:08.885Z,58.70
2018-05-18T14:48:12.352Z,58.70
2018-05-18T14:50:15.845Z,58.10
2018-05-18T14:52:19.199Z,56.80
2018-05-18T14:54:22.592Z,57.60
2018-05-18T14:58:43.411Z,56.70
2018-05-18T15:00:47.727Z,56.70
2018-05-18T15:02:52.193Z,58.00
2018-05-18T15:04:55.664Z,58.00
2018-05-18T15:06:59.696Z,57.70
2018-05-18T15:09:03.947Z,58.50
2018-05-18T15:11:07.395Z,58.50
2018-05-18T15:13:11.243Z,58.40
2018-05-18T15:15:16.124Z,58.50
2018-05-18T15:17:19.572Z,58.80
2018-05-18T15:19:23.059Z,58.90
2018-05-18T15:21:28.183Z,59.30
2018-05-18T15:23:32.010Z,59.00
2018-05-18T15:25:35.861Z,58.90
2018-05-18T15:27:39.283Z,58.70
2018-05-18T15:29:42.831Z,58.40
2018-05-18T15:31:46.891Z,58.30
2018-05-18T15:33:51.365Z,57.90
2018-05-18T15:35:54.841Z,56.40
2018-05-18T15:37:59.078Z,56.30
2018-05-18T15:40:02.462Z,56.30
2018-05-18T15:42:06.153Z,56.50
2018-05-18T15:44:10.392Z,57.00
2018-05-18T15:46:14.620Z,56.90
2018-05-18T15:48:18.033Z,56.90
2018-05-18T15:50:21.374Z,56.60
2018-05-18T15:52:24.776Z,56.80
2018-05-18T15:54:28.235Z,56.50
2018-05-18T15:56:32.186Z,55.40
2018-05-18T15:58:36.602Z,55.10
2018-05-18T16:00:41.893Z,55.00
2018-05-18T16:02:45.450Z,55.50
2018-05-18T16:04:49.911Z,55.00
2018-05-18T16:06:53.387Z,54.90
2018-05-18T16:08:56.792Z,55.00
2018-05-18T16:11:00.301Z,55.00
2018-05-18T16:13:03.880Z,55.50
2018-05-18T16:15:07.451Z,55.90
2018-05-18T16:17:11.078Z,55.50
2018-05-18T16:19:14.662Z,55.20
2018-05-18T16:21:18.134Z,55.00
2018-05-18T16:23:22.398Z,54.80
2018-05-18T16:25:25.946Z,54.80
2018-05-18T16:27:30.303Z,56.20
2018-05-18T16:29:34.025Z,56.10
2018-05-18T16:31:37.515Z,56.50
2018-05-18T16:33:41.002Z,57.10
2018-05-18T16:35:45.395Z,57.30
2018-05-18T16:37:52.266Z,57.60
2018-05-18T16:39:55.769Z,57.80
2018-05-18T16:41:59.158Z,58.70
2018-05-18T16:44:03.215Z,58.90
2018-05-18T16:46:08.001Z,59.20
2018-05-18T16:48:13.810Z,58.80
2018-05-18T16:50:18.053Z,59.30
2018-05-18T16:52:21.427Z,59.30
2018-05-18T16:54:25.607Z,59.70
2018-05-18T16:56:29.080Z,59.60
2018-05-18T16:58:32.476Z,59.50
2018-05-18T17:00:37.087Z,60.20
2018-05-18T17:02:40.689Z,60.00
2018-05-18T17:04:44.753Z,60.20
2018-05-18T17:06:48.377Z,60.70
2018-05-18T17:08:52.894Z,60.40
2018-05-18T17:10:56.588Z,60.00
2018-05-18T17:13:00.466Z,60.90
2018-05-18T17:15:04.316Z,60.20
2018-05-18T17:17:07.685Z,60.10
2018-05-18T17:19:11.131Z,60.90
2018-05-18T17:21:14.907Z,60.10
2018-05-18T17:23:18.491Z,60.20
2018-05-18T17:25:22.103Z,60.80
2018-05-18T17:27:25.690Z,61.90
2018-05-18T17:29:29.212Z,62.40
2018-05-18T17:31:32.768Z,61.80
2018-05-18T17:33:36.288Z,61.10
2018-05-18T17:35:39.651Z,60.70
2018-05-18T17:37:43.369Z,60.80
2018-05-18T17:39:47.234Z,58.70
2018-05-18T17:41:50.867Z,58.60
2018-05-18T17:43:55.079Z,58.20
2018-05-18T17:45:58.653Z,58.20
2018-05-18T17:48:02.605Z,58.00
2018-05-18T17:50:06.803Z,58.50
2018-05-18T17:52:10.220Z,58.40
2018-05-18T17:54:13.770Z,59.20
2018-05-18T17:56:17.988Z,60.00
2018-05-18T17:58:21.356Z,61.30
2018-05-18T18:00:24.792Z,61.00
2018-05-18T18:04:35.070Z,62.60
2018-05-18T18:06:38.478Z,62.60
2018-05-18T18:08:41.927Z,62.90
2018-05-18T18:10:45.324Z,63.10
2018-05-18T18:12:48.739Z,63.20
2018-05-18T18:14:52.930Z,63.60
2018-05-18T18:16:56.380Z,63.40
2018-05-18T18:18:59.938Z,64.30
2018-05-18T18:21:03.483Z,65.00
2018-05-18T18:23:07.847Z,65.10
2018-05-18T18:25:12.120Z,65.70
2018-05-18T18:27:16.474Z,65.60
2018-05-18T18:29:20.049Z,66.30
2018-05-18T18:31:23.530Z,66.30
2018-05-18T18:33:27.807Z,67.10
2018-05-18T18:35:31.326Z,67.20
2018-05-18T18:37:35.081Z,67.40
2018-05-18T18:39:39.219Z,68.40
2018-05-18T18:41:43.498Z,68.60
2018-05-18T18:43:47.342Z,69.30
2018-05-18T18:45:50.968Z,69.70
2018-05-18T18:47:54.498Z,70.20
2018-05-18T18:49:58.058Z,69.80
2018-05-18T18:52:02.865Z,70.50
2018-05-18T18:54:06.698Z,70.70
2018-05-18T18:56:10.353Z,70.00
2018-05-18T18:58:13.889Z,70.70
2018-05-18T19:00:17.350Z,70.90
2018-05-18T19:02:21.159Z,71.10
2018-05-18T19:04:24.572Z,71.10
2018-05-18T19:06:28.026Z,70.70
2018-05-18T19:08:31.600Z,71.50
2018-05-18T19:10:35.398Z,71.40
2018-05-18T19:12:38.973Z,72.60
2018-05-18T19:14:42.645Z,72.90
2018-05-18T19:16:46.014Z,73.10
2018-05-18T19:18:49.419Z,73.40
2018-05-18T19:20:52.775Z,73.60
2018-05-18T19:22:56.974Z,74.10
2018-05-18T19:25:00.934Z,74.30
2018-05-18T19:27:04.400Z,74.20
2018-05-18T19:29:07.970Z,74.30
2018-05-18T19:31:11.503Z,74.50
2018-05-18T19:33:14.925Z,75.20
2018-05-18T19:35:18.398Z,75.00
2018-05-18T19:37:21.844Z,75.40
2018-05-18T19:39:25.321Z,75.70
2018-05-18T19:41:28.943Z,76.00
2018-05-18T19:43:32.418Z,76.10
2018-05-18T19:45:35.952Z,76.70
2018-05-18T19:47:39.584Z,77.30
2018-05-18T19:49:43.115Z,77.50
2018-05-18T19:51:46.687Z,77.90
2018-05-18T19:53:50.049Z,77.80
2018-05-18T19:55:53.454Z,77.90
2018-05-18T19:57:56.892Z,78.00
2018-05-18T20:00:00.321Z,78.30
2018-05-18T20:02:03.702Z,78.30
2018-05-18T20:04:07.045Z,78.70
2018-05-18T20:06:10.434Z,79.00
2018-05-18T20:08:14.061Z,79.20
2018-05-18T20:10:17.558Z,79.60
2018-05-18T20:12:21.171Z,79.50
2018-05-18T20:14:24.508Z,79.50
2018-05-18T20:16:30.569Z,79.50
2018-05-18T20:18:34.182Z,79.50
2018-05-18T20:22:34.622Z,80.10
2018-05-18T20:24:38.108Z,80.50
2018-05-18T20:26:41.939Z,81.00
2018-05-18T20:28:45.582Z,81.40
2018-05-18T20:30:50.273Z,81.60
2018-05-18T20:32:54.734Z,83.00
2018-05-18T20:34:58.482Z,83.00
2018-05-18T20:37:04.870Z,83.40
2018-05-18T20:39:12.892Z,84.20
2018-05-18T20:41:17.551Z,84.10
2018-05-18T20:43:21.636Z,85.10
2018-05-18T20:45:25.443Z,85.50
2018-05-18T20:47:28.886Z,85.40
2018-05-18T20:49:34.431Z,86.00
2018-05-18T20:51:38.725Z,87.20
2018-05-18T20:53:43.596Z,86.90
2018-05-18T20:55:47.419Z,86.50
2018-05-18T20:57:52.601Z,87.30
2018-05-18T20:59:56.913Z,87.90
2018-05-18T21:02:04.604Z,88.10
2018-05-18T21:04:09.263Z,88.00
2018-05-18T21:06:14.855Z,88.50
2018-05-18T21:08:19.081Z,90.00
2018-05-18T21:10:24.290Z,90.00
2018-05-18T21:12:27.924Z,90.00
2018-05-18T21:14:38.167Z,90.00
2018-05-18T21:16:41.592Z,90.10
2018-05-18T21:18:44.952Z,90.30
2018-05-18T21:20:48.388Z,90.20
2018-05-18T21:22:51.864Z,90.20
2018-05-18T21:24:55.220Z,90.20
2018-05-18T21:26:58.769Z,90.20
2018-05-18T21:29:02.256Z,90.50
2018-05-18T21:31:10.530Z,90.60
2018-05-18T21:33:14.415Z,91.30
2018-05-18T21:35:18.136Z,91.70
2018-05-18T21:37:21.671Z,92.00
2018-05-18T21:39:25.036Z,92.30
2018-05-18T21:41:28.521Z,92.40
2018-05-18T21:43:32.193Z,92.30
2018-05-18T21:45:37.834Z,92.70
2018-05-18T21:47:42.355Z,92.90
2018-05-18T21:49:47.565Z,92.90
2018-05-18T21:51:51.636Z,93.20
2018-05-18T21:53:57.251Z,92.50
2018-05-18T21:56:01.120Z,92.50
2018-05-18T21:58:05.744Z,92.40
2018-05-18T22:00:09.599Z,92.60
2018-05-18T22:02:13.298Z,92.80
2018-05-18T22:04:18.428Z,92.90
2018-05-18T22:06:21.835Z,92.90
2018-05-18T22:08:26.313Z,93.10
2018-05-18T22:10:29.630Z,93.00
2018-05-18T22:12:32.973Z,92.90
2018-05-18T22:14:36.447Z,92.90
2018-05-18T22:16:40.045Z,92.90
2018-05-18T22:18:44.206Z,93.10
2018-05-18T22:20:47.582Z,93.10
2018-05-18T22:22:51.923Z,93.50
2018-05-18T22:24:56.094Z,93.90
2018-05-18T22:26:59.502Z,93.80
2018-05-18T22:29:03.171Z,94.10
2018-05-18T22:33:18.910Z,94.40
2018-05-18T22:35:22.223Z,94.80
2018-05-18T22:37:25.713Z,94.80
2018-05-18T22:39:30.057Z,94.90
2018-05-18T22:41:33.373Z,95.10
2018-05-18T22:43:36.690Z,95.40
2018-05-18T22:45:40.024Z,95.40
2018-05-18T22:47:43.330Z,95.50
2018-05-18T22:49:47.816Z,95.70
2018-05-18T22:51:51.163Z,96.00
2018-05-18T22:53:55.245Z,96.10
2018-05-18T22:55:58.574Z,96.40
2018-05-18T22:58:02.466Z,96.50
2018-05-18T23:00:05.940Z,96.70
2018-05-18T23:02:10.793Z,96.70
2018-05-18T23:04:14.910Z,96.70
2018-05-18T23:06:18.226Z,96.80
2018-05-18T23:08:21.535Z,96.90
2018-05-18T23:10:25.098Z,96.90
2018-05-18T23:12:29.858Z,97.00
2018-05-18T23:14:33.461Z,96.90
2018-05-18T23:16:36.875Z,97.00
2018-05-18T23:18:43.021Z,97.10
2018-05-18T23:20:46.439Z,97.10
2018-05-18T23:22:49.905Z,97.00
2018-05-18T23:24:54.041Z,97.00
2018-05-18T23:26:57.339Z,97.20
2018-05-18T23:29:00.659Z,97.20
2018-05-18T23:31:04.182Z,97.50
2018-05-18T23:33:08.187Z,97.30
2018-05-18T23:35:11.673Z,97.60
2018-05-18T23:37:14.987Z,97.80
2018-05-18T23:39:19.044Z,98.00
2018-05-18T23:41:22.357Z,98.00
2018-05-18T23:43:25.729Z,98.10
2018-05-18T23:45:29.473Z,98.40
2018-05-18T23:47:32.791Z,98.60
2018-05-18T23:49:36.870Z,98.50
2018-05-18T23:51:40.253Z,98.50
2018-05-18T23:53:43.693Z,98.40
2018-05-18T23:55:47.031Z,98.40
2018-05-18T23:57:50.636Z,98.70
2018-05-18T23:59:54.014Z,98.60
